Time,TemperatureF,DewpointF,PressureIn,WindDirection,WindDirectionDegrees,WindSpeedMPH,WindSpeedGustMPH,Humidity,HourlyPrecipIn,Conditions,Clouds,dailyrainin,SoftwareType,DateUTC
2013-08-22 00:00:00,77.9,65.2,30.06,SSW,207,0.0,0.0,65,0.00,,,0.00,WeatherDisplay:10.37,2013-08-21 22:00:00,
2013-08-22 00:05:00,77.3,64.6,30.06,SSW,207,0.0,3.0,65,0.00,,,0.00,WeatherDisplay:10.37,2013-08-21 22:05:00,
2013-08-22 00:10:00,76.4,64.7,30.06,SSE,153,0.0,0.0,67,0.00,,,0.00,WeatherDisplay:10.37,2013-08-21 22:10:00,
2013-08-22 00:15:00,76.0,64.7,30.06,ESE,120,0.0,0.0,68,0.00,,,0.00,WeatherDisplay:10.37,2013-08-21 22:15:00,
2013-08-22 00:20:00,75.7,64.4,30.06,ESE,119,0.0,0.0,68,0.00,,,0.00,WeatherDisplay:10.37,2013-08-21 22:20:00,
2013-08-22 00:25:00,75.4,64.5,30.06,ESE,116,0.0,0.0,69,0.00,,,0.00,WeatherDisplay:10.37,2013-08-21 22:25:00,
2013-08-22 00:30:00,75.3,64.4,30.06,ESE,111,1.0,5.0,69,0.00,,,0.00,WeatherDisplay:10.37,2013-08-21 22:30:00,
2013-08-22 00:35:00,75.1,64.2,30.06,ESE,107,0.0,6.0,69,0.00,,,0.00,WeatherDisplay:10.37,2013-08-21 22:35:00,
2013-08-22 00:40:00,74.8,63.9,30.06,ESE,107,3.0,6.0,69,0.00,,,0.00,WeatherDisplay:10.37,2013-08-21 22:40:00,
2013-08-22 00:45:00,74.6,63.7,30.06,ESE,106,5.0,6.0,69,0.00,,,0.00,WeatherDisplay:10.37,2013-08-21 22:45:00,
2013-08-22 00:50:00,74.3,63.5,30.06,ESE,104,0.0,2.0,69,0.00,,,0.00,WeatherDisplay:10.37,2013-08-21 22:50:00,
2013-08-22 00:55:00,74.1,63.3,30.06,ESE,103,0.0,0.0,69,0.00,,,0.00,Wunderground v.1.15,2013-08-21 22:55:00,
2013-08-22 01:05:00,73.9,63.5,30.06,ESE,103,0.0,0.0,70,0.00,,,0.00,WeatherDisplay:10.37,2013-08-21 23:05:00,
2013-08-22 01:10:00,73.7,63.3,30.06,ESE,103,0.0,0.0,70,0.00,,,0.00,WeatherDisplay:10.37,2013-08-21 23:10:00,
2013-08-22 01:15:00,73.6,63.2,30.06,ESE,103,0.0,0.0,70,0.00,,,0.00,WeatherDisplay:10.37,2013-08-21 23:15:00,
2013-08-22 01:20:00,73.5,63.1,30.06,ESE,103,0.0,0.0,70,0.00,,,0.00,WeatherDisplay:10.37,2013-08-21 23:20:00,
2013-08-22 01:25:00,73.4,63.4,30.06,ESE,103,0.0,0.0,71,0.00,,,0.00,WeatherDisplay:10.37,2013-08-21 23:25:00,
2013-08-22 01:30:00,73.4,63.4,30.06,ESE,103,0.0,0.0,71,0.00,,,0.00,WeatherDisplay:10.37,2013-08-21 23:30:00,
2013-08-22 01:35:00,73.4,63.4,30.06,ESE,103,0.0,0.0,71,0.00,,,0.00,WeatherDisplay:10.37,2013-08-21 23:35:00,
2013-08-22 01:40:00,73.3,63.4,30.06,ESE,103,0.0,0.0,71,0.00,,,0.00,WeatherDisplay:10.37,2013-08-21 23:40:00,
2013-08-22 01:45:00,73.3,62.9,30.06,ESE,103,0.0,0.0,70,0.00,,,0.00,WeatherDisplay:10.37,2013-08-21 23:45:00,
2013-08-22 01:50:00,73.0,62.7,30.06,ESE,103,0.0,0.0,70,0.00,,,0.00,WeatherDisplay:10.37,2013-08-21 23:50:00,
2013-08-22 01:56:00,72.9,62.5,30.06,ESE,103,1.0,2.0,70,0.00,,,0.00,Wunderground v.1.15,2013-08-21 23:56:00,
2013-08-22 02:05:00,72.8,62.4,30.06,ESE,103,3.0,5.0,70,0.00,,,0.00,WeatherDisplay:10.37,2013-08-22 00:05:00,
2013-08-22 02:10:00,72.6,62.7,30.05,ESE,103,2.0,5.0,71,0.00,,,0.00,WeatherDisplay:10.37,2013-08-22 00:10:00,
2013-08-22 02:15:00,72.5,62.6,30.05,ESE,103,2.0,5.0,71,0.00,,,0.00,WeatherDisplay:10.37,2013-08-22 00:15:00,
2013-08-22 02:20:00,72.4,62.5,30.05,ESE,103,2.0,5.0,71,0.00,,,0.00,WeatherDisplay:10.37,2013-08-22 00:20:00,
2013-08-22 02:25:00,72.4,62.9,30.05,ESE,103,1.0,6.0,72,0.00,,,0.00,WeatherDisplay:10.37,2013-08-22 00:25:00,
2013-08-22 02:30:00,72.2,62.7,30.05,East,99,5.0,6.0,72,0.00,,,0.00,WeatherDisplay:10.37,2013-08-22 00:30:00,
2013-08-22 02:35:00,72.1,62.6,30.05,East,92,4.0,4.0,72,0.00,,,0.00,Wunderground v.1.15,2013-08-22 00:35:00,
2013-08-22 02:45:00,71.7,62.2,30.05,East,87,2.0,5.0,72,0.00,,,0.00,WeatherDisplay:10.37,2013-08-22 00:45:00,
2013-08-22 02:50:00,71.6,62.5,30.04,East,84,2.0,5.0,73,0.00,,,0.00,WeatherDisplay:10.37,2013-08-22 00:50:00,
2013-08-22 02:55:00,71.5,62.4,30.04,East,84,0.0,5.0,73,0.00,,,0.00,WeatherDisplay:10.37,2013-08-22 00:55:00,
2013-08-22 03:00:00,71.5,62.4,30.04,East,83,0.0,0.0,73,0.00,,,0.00,WeatherDisplay:10.37,2013-08-22 01:00:00,
2013-08-22 03:05:00,71.5,62.4,30.04,East,83,0.0,4.0,73,0.00,,,0.00,WeatherDisplay:10.37,2013-08-22 01:05:00,
2013-08-22 03:10:00,71.5,62.4,30.04,East,83,0.0,0.0,73,0.00,,,0.00,WeatherDisplay:10.37,2013-08-22 01:10:00,
2013-08-22 03:15:00,71.5,62.4,30.04,East,83,0.0,0.0,73,0.00,,,0.00,WeatherDisplay:10.37,2013-08-22 01:15:00,
2013-08-22 03:20:00,71.5,62.3,30.04,East,83,2.0,4.0,73,0.00,,,0.00,WeatherDisplay:10.37,2013-08-22 01:20:00,
2013-08-22 03:25:00,71.4,62.3,30.04,East,82,0.0,5.0,73,0.00,,,0.00,WeatherDisplay:10.37,2013-08-22 01:25:00,
2013-08-22 03:30:00,71.3,62.6,30.04,ENE,77,3.0,5.0,74,0.00,,,0.00,WeatherDisplay:10.37,2013-08-22 01:30:00,
2013-08-22 03:35:00,71.3,62.6,30.04,ENE,62,3.0,5.0,74,0.00,,,0.00,WeatherDisplay:10.37,2013-08-22 01:35:00,
2013-08-22 03:40:00,71.2,62.5,30.04,NE,48,2.0,5.0,74,0.00,,,0.00,WeatherDisplay:10.37,2013-08-22 01:40:00,
2013-08-22 03:50:00,71.1,62.4,30.04,NE,41,2.0,5.0,74,0.00,,,0.00,WeatherDisplay:10.37,2013-08-22 01:50:00,
2013-08-22 03:55:00,71.0,62.3,30.03,NE,41,2.0,4.0,74,0.00,,,0.00,WeatherDisplay:10.37,2013-08-22 01:55:00,
2013-08-22 04:00:00,70.9,62.2,30.03,NE,41,1.0,5.0,74,0.00,,,0.00,WeatherDisplay:10.37,2013-08-22 02:00:00,
2013-08-22 04:05:00,70.8,62.5,30.03,NE,41,2.0,2.0,75,0.00,,,0.00,Wunderground v.1.15,2013-08-22 02:05:00,
2013-08-22 04:11:00,70.6,62.3,30.03,NE,41,2.0,2.0,75,0.00,,,0.00,Wunderground v.1.15,2013-08-22 02:11:00,
2013-08-22 04:16:00,70.6,62.3,30.03,NE,41,2.0,2.0,75,0.00,,,0.00,Wunderground v.1.15,2013-08-22 02:16:00,
2013-08-22 04:25:00,70.4,62.1,30.03,NE,41,0.0,5.0,75,0.00,,,0.00,WeatherDisplay:10.37,2013-08-22 02:25:00,
2013-08-22 04:30:00,70.4,62.1,30.03,NE,41,2.0,5.0,75,0.00,,,0.00,WeatherDisplay:10.37,2013-08-22 02:30:00,
2013-08-22 04:35:00,70.4,62.1,30.02,NE,41,2.0,5.0,75,0.00,,,0.00,WeatherDisplay:10.37,2013-08-22 02:35:00,
2013-08-22 04:40:00,70.4,62.1,30.02,NE,41,3.0,5.0,75,0.00,,,0.00,WeatherDisplay:10.37,2013-08-22 02:40:00,
2013-08-22 04:45:00,70.3,62.4,30.02,NE,41,2.0,5.0,76,0.00,,,0.00,WeatherDisplay:10.37,2013-08-22 02:45:00,
2013-08-22 04:50:00,70.3,62.3,30.02,NE,41,2.0,6.0,76,0.00,,,0.00,WeatherDisplay:10.37,2013-08-22 02:50:00,
2013-08-22 04:55:00,70.2,62.3,30.02,NE,41,3.0,5.0,76,0.00,,,0.00,WeatherDisplay:10.37,2013-08-22 02:55:00,
2013-08-22 05:00:00,70.1,62.1,30.02,NE,41,3.0,6.0,76,0.00,,,0.00,WeatherDisplay:10.37,2013-08-22 03:00:00,
2013-08-22 05:05:00,69.9,62.0,30.02,NE,41,2.0,6.0,76,0.00,,,0.00,WeatherDisplay:10.37,2013-08-22 03:05:00,
2013-08-22 05:10:00,69.8,61.9,30.02,NE,42,2.0,5.0,76,0.00,,,0.00,WeatherDisplay:10.37,2013-08-22 03:10:00,
2013-08-22 05:15:00,69.8,62.3,30.02,NE,42,2.0,5.0,77,0.00,,,0.00,WeatherDisplay:10.37,2013-08-22 03:15:00,
2013-08-22 05:20:00,69.9,62.4,30.02,NE,41,2.0,5.0,77,0.00,,,0.00,WeatherDisplay:10.37,2013-08-22 03:20:00,
2013-08-22 05:25:00,69.8,62.2,30.02,NE,41,2.0,4.0,77,0.00,,,0.00,WeatherDisplay:10.37,2013-08-22 03:25:00,
2013-08-22 05:30:00,69.7,62.1,30.02,NE,41,1.0,5.0,77,0.00,,,0.00,WeatherDisplay:10.37,2013-08-22 03:30:00,
2013-08-22 05:35:00,69.6,62.1,30.02,NNE,28,2.0,6.0,77,0.00,,,0.00,WeatherDisplay:10.37,2013-08-22 03:35:00,
2013-08-22 05:40:00,69.5,62.3,30.02,NNE,13,0.0,4.0,78,0.00,,,0.00,WeatherDisplay:10.37,2013-08-22 03:40:00,
2013-08-22 05:45:00,69.5,62.3,30.02,NNE,13,0.0,0.0,78,0.00,,,0.00,WeatherDisplay:10.37,2013-08-22 03:45:00,
2013-08-22 05:50:00,69.4,62.2,30.01,NNE,13,0.0,0.0,78,0.00,,,0.00,WeatherDisplay:10.37,2013-08-22 03:50:00,
2013-08-22 05:55:00,69.4,62.2,30.01,NNE,13,0.0,0.0,78,0.00,,,0.00,WeatherDisplay:10.37,2013-08-22 03:55:00,
2013-08-22 06:00:00,69.4,62.2,30.01,NNE,13,0.0,0.0,78,0.00,,,0.00,WeatherDisplay:10.37,2013-08-22 04:00:00,
2013-08-22 06:01:00,69.4,62.2,30.01,NNE,13,0.0,0.0,78,0.00,,,0.00,Wunderground v.1.15,2013-08-22 04:01:00,
2013-08-22 06:05:00,69.5,62.3,30.01,NNE,13,0.0,0.0,78,0.00,,,0.00,Wunderground v.1.15,2013-08-22 04:05:00,
2013-08-22 06:15:00,69.5,62.3,30.01,NNE,13,0.0,3.0,78,0.00,,,0.00,WeatherDisplay:10.37,2013-08-22 04:15:00,
2013-08-22 06:20:00,69.3,62.1,30.01,NNE,13,2.0,5.0,78,0.00,,,0.00,WeatherDisplay:10.37,2013-08-22 04:20:00,
2013-08-22 06:25:00,69.1,62.0,30.01,NNE,13,2.0,4.0,78,0.00,,,0.00,WeatherDisplay:10.37,2013-08-22 04:25:00,
2013-08-22 06:30:00,69.1,61.9,30.01,NNE,13,1.0,4.0,78,0.00,,,0.00,WeatherDisplay:10.37,2013-08-22 04:30:00,
2013-08-22 06:35:00,69.0,61.9,30.01,NNE,13,2.0,4.0,78,0.00,,,0.00,WeatherDisplay:10.37,2013-08-22 04:35:00,
2013-08-22 06:40:00,68.8,61.7,30.01,NNE,13,3.0,5.0,78,0.00,,,0.00,WeatherDisplay:10.37,2013-08-22 04:40:00,
2013-08-22 06:45:00,68.7,61.6,30.01,NNE,13,2.0,4.0,78,0.00,,,0.00,WeatherDisplay:10.37,2013-08-22 04:45:00,
2013-08-22 06:50:00,68.6,61.5,30.01,NNE,13,2.0,4.0,78,0.00,,,0.00,WeatherDisplay:10.37,2013-08-22 04:50:00,
2013-08-22 06:55:00,68.6,61.9,30.01,NNE,13,2.0,6.0,79,0.00,,,0.00,WeatherDisplay:10.37,2013-08-22 04:55:00,
2013-08-22 07:00:00,68.7,61.9,30.01,NNE,13,0.0,4.0,79,0.00,CLR,,0.00,WeatherDisplay:10.37,2013-08-22 05:00:00,
2013-08-22 07:05:00,68.7,61.9,30.01,NNE,13,0.0,2.0,79,0.00,CLR,,0.00,WeatherDisplay:10.37,2013-08-22 05:05:00,
2013-08-22 07:10:00,68.6,61.5,30.01,NNE,13,0.0,4.0,78,0.00,CLR,,0.00,WeatherDisplay:10.37,2013-08-22 05:10:00,
2013-08-22 07:16:00,68.4,61.3,30.01,NNE,14,2.0,4.0,78,0.00,,,0.00,Wunderground v.1.15,2013-08-22 05:16:00,
2013-08-22 07:25:00,68.3,61.1,30.01,NNE,15,2.0,5.0,78,0.00,CLR,,0.00,WeatherDisplay:10.37,2013-08-22 05:25:00,
2013-08-22 07:30:00,68.4,61.2,30.01,NNE,16,2.0,6.0,78,0.00,CLR,,0.00,WeatherDisplay:10.37,2013-08-22 05:30:00,
2013-08-22 07:35:00,68.4,61.3,30.01,NNE,17,3.0,6.0,78,0.00,CLR,,0.00,WeatherDisplay:10.37,2013-08-22 05:35:00,
2013-08-22 07:40:00,68.5,61.0,30.01,NNE,17,3.0,6.0,77,0.00,CLR,,0.00,WeatherDisplay:10.37,2013-08-22 05:40:00,
2013-08-22 07:45:00,68.5,61.0,30.01,NNE,18,2.0,6.0,77,0.00,CLR,,0.00,WeatherDisplay:10.37,2013-08-22 05:45:00,
2013-08-22 07:50:00,68.6,61.1,30.01,NNE,19,3.0,5.0,77,0.00,CLR,,0.00,WeatherDisplay:10.37,2013-08-22 05:50:00,
2013-08-22 07:55:00,68.8,61.0,30.01,NNE,19,3.0,5.0,76,0.00,CLR,,0.00,WeatherDisplay:10.37,2013-08-22 05:55:00,
2013-08-22 08:00:00,69.1,60.8,30.01,NNE,19,3.0,5.0,75,0.00,CLR,,0.00,WeatherDisplay:10.37,2013-08-22 06:00:00,
2013-08-22 08:05:00,69.4,60.8,30.01,NNE,19,3.0,6.0,74,0.00,CLR,,0.00,WeatherDisplay:10.37,2013-08-22 06:05:00,
2013-08-22 08:10:00,69.7,60.7,30.01,NNE,19,2.0,5.0,73,0.00,CLR,,0.00,WeatherDisplay:10.37,2013-08-22 06:10:00,
2013-08-22 08:15:00,70.0,60.9,30.01,NNE,19,0.0,6.0,73,0.00,CLR,,0.00,WeatherDisplay:10.37,2013-08-22 06:15:00,
2013-08-22 08:20:00,70.3,60.9,30.01,NNE,19,2.0,4.0,72,0.00,CLR,,0.00,WeatherDisplay:10.37,2013-08-22 06:20:00,
2013-08-22 08:25:00,70.6,61.2,30.01,NNE,19,2.0,6.0,72,0.00,CLR,,0.00,WeatherDisplay:10.37,2013-08-22 06:25:00,
2013-08-22 08:30:00,71.0,61.1,30.01,NNE,19,3.0,5.0,71,0.00,CLR,,0.00,WeatherDisplay:10.37,2013-08-22 06:30:00,
2013-08-22 08:35:00,71.4,61.5,30.01,NNE,19,1.0,5.0,71,0.00,CLR,,0.00,WeatherDisplay:10.37,2013-08-22 06:35:00,
2013-08-22 08:40:00,71.7,61.4,30.01,NNE,19,3.0,5.0,70,0.00,CLR,,0.00,WeatherDisplay:10.37,2013-08-22 06:40:00,
2013-08-22 08:45:00,72.1,61.4,30.01,NNE,19,2.0,4.0,69,0.00,CLR,,0.00,WeatherDisplay:10.37,2013-08-22 06:45:00,
2013-08-22 08:50:00,72.5,61.7,30.01,NNE,19,2.0,4.0,69,0.00,CLR,,0.00,WeatherDisplay:10.37,2013-08-22 06:50:00,
2013-08-22 08:55:00,72.8,61.6,30.01,NNE,19,2.0,4.0,68,0.00,CLR,,0.00,WeatherDisplay:10.37,2013-08-22 06:55:00,
2013-08-22 09:00:00,73.1,62.0,30.02,NNE,19,1.0,4.0,68,0.00,CLR,,0.00,WeatherDisplay:10.37,2013-08-22 07:00:00,
2013-08-22 09:05:00,73.6,61.9,30.01,NNE,19,1.0,3.0,67,0.00,CLR,,0.00,WeatherDisplay:10.37,2013-08-22 07:05:00,
2013-08-22 09:10:00,74.1,62.5,30.01,NNE,19,0.0,5.0,67,0.00,CLR,,0.00,WeatherDisplay:10.37,2013-08-22 07:10:00,
2013-08-22 09:15:00,74.8,62.7,30.01,NNE,19,0.0,0.0,66,0.00,CLR,,0.00,WeatherDisplay:10.37,2013-08-22 07:15:00,
2013-08-22 09:20:00,75.4,62.8,30.02,NNE,19,0.0,3.0,65,0.00,CLR,,0.00,WeatherDisplay:10.37,2013-08-22 07:20:00,
2013-08-22 09:25:00,76.0,62.9,30.02,NNE,19,0.0,5.0,64,0.00,CLR,,0.00,WeatherDisplay:10.37,2013-08-22 07:25:00,
2013-08-22 09:30:00,76.3,63.3,30.02,NNE,19,0.0,5.0,64,0.00,CLR,,0.00,WeatherDisplay:10.37,2013-08-22 07:30:00,
2013-08-22 09:35:00,76.7,63.6,30.02,NNE,19,0.0,3.0,64,0.00,CLR,,0.00,WeatherDisplay:10.37,2013-08-22 07:35:00,
2013-08-22 09:40:00,77.1,64.0,30.02,NNE,19,0.0,0.0,64,0.00,CLR,,0.00,WeatherDisplay:10.37,2013-08-22 07:40:00,
2013-08-22 09:45:00,77.5,64.4,30.02,NNE,19,0.0,0.0,64,0.00,CLR,,0.00,WeatherDisplay:10.37,2013-08-22 07:45:00,
2013-08-22 09:50:00,78.2,64.6,30.02,NNE,19,0.0,0.0,63,0.00,CLR,,0.00,WeatherDisplay:10.37,2013-08-22 07:50:00,
2013-08-22 09:55:00,78.9,64.3,30.02,NNE,19,0.0,0.0,61,0.00,CLR,,0.00,WeatherDisplay:10.37,2013-08-22 07:55:00,
2013-08-22 10:00:00,79.5,63.9,30.02,NNE,19,0.0,0.0,59,0.00,CLR,,0.00,WeatherDisplay:10.37,2013-08-22 08:00:00,
2013-08-22 10:05:00,80.2,64.1,30.02,NNE,19,0.0,0.0,58,0.00,CLR,,0.00,WeatherDisplay:10.37,2013-08-22 08:05:00,
2013-08-22 10:10:00,80.9,63.2,30.02,NNE,19,0.0,0.0,55,0.00,CLR,,0.00,WeatherDisplay:10.37,2013-08-22 08:10:00,
2013-08-22 10:15:00,81.5,63.2,30.02,NNE,19,0.0,0.0,54,0.00,CLR,,0.00,WeatherDisplay:10.37,2013-08-22 08:15:00,
2013-08-22 10:20:00,82.0,63.1,30.02,NNE,19,0.0,0.0,53,0.00,CLR,,0.00,WeatherDisplay:10.37,2013-08-22 08:20:00,
2013-08-22 10:25:00,82.1,63.3,30.02,NNE,19,1.0,3.0,53,0.00,CLR,,0.00,WeatherDisplay:10.37,2013-08-22 08:25:00,
2013-08-22 10:35:00,80.3,64.7,30.02,SW,235,2.0,5.0,59,0.00,CLR,,0.00,WeatherDisplay:10.37,2013-08-22 08:35:00,
2013-08-22 10:40:00,79.6,64.5,30.02,SSW,207,2.0,4.0,60,0.00,CLR,,0.00,WeatherDisplay:10.37,2013-08-22 08:40:00,
2013-08-22 10:45:00,79.1,64.5,30.02,SSW,203,3.0,6.0,61,0.00,CLR,,0.00,WeatherDisplay:10.37,2013-08-22 08:45:00,
2013-08-22 10:50:00,79.0,64.4,30.02,SSW,205,3.0,6.0,61,0.00,CLR,,0.00,WeatherDisplay:10.37,2013-08-22 08:50:00,
2013-08-22 10:55:00,79.1,64.5,30.02,SSW,206,3.0,5.0,61,0.00,CLR,,0.00,WeatherDisplay:10.37,2013-08-22 08:55:00,
2013-08-22 11:00:00,79.2,64.1,30.02,SSW,206,3.0,5.0,60,0.00,CLR,,0.00,WeatherDisplay:10.37,2013-08-22 09:00:00,
2013-08-22 11:05:00,79.3,63.2,30.02,SSW,206,1.0,5.0,58,0.00,CLR,,0.00,WeatherDisplay:10.37,2013-08-22 09:05:00,
2013-08-22 11:10:00,79.5,63.4,30.02,SSW,210,3.0,6.0,58,0.00,CLR,,0.00,WeatherDisplay:10.37,2013-08-22 09:10:00,
2013-08-22 11:15:00,79.7,64.1,30.02,SW,221,3.0,7.0,59,0.00,CLR,,0.00,WeatherDisplay:10.37,2013-08-22 09:15:00,
2013-08-22 11:20:00,79.7,64.6,30.02,SW,225,2.0,7.0,60,0.00,CLR,,0.00,WeatherDisplay:10.37,2013-08-22 09:20:00,
2013-08-22 11:25:00,79.4,64.8,30.02,SW,221,6.0,8.0,61,0.00,CLR,,0.00,WeatherDisplay:10.37,2013-08-22 09:25:00,
2013-08-22 11:30:00,79.5,63.9,30.02,SW,218,5.0,7.0,59,0.00,CLR,,0.00,WeatherDisplay:10.37,2013-08-22 09:30:00,
2013-08-22 11:35:00,79.7,65.1,30.02,SW,214,2.0,7.0,61,0.00,CLR,,0.00,WeatherDisplay:10.37,2013-08-22 09:35:00,
2013-08-22 11:40:00,79.7,64.1,30.02,SW,215,2.0,7.0,59,0.00,CLR,,0.00,WeatherDisplay:10.37,2013-08-22 09:40:00,
2013-08-22 11:50:00,80.1,64.9,30.02,SW,214,2.0,8.0,60,0.00,CLR,,0.00,WeatherDisplay:10.37,2013-08-22 09:50:00,
2013-08-22 11:55:00,80.1,64.0,30.02,SSW,209,6.0,8.0,58,0.00,CLR,,0.00,WeatherDisplay:10.37,2013-08-22 09:55:00,
2013-08-22 12:00:00,80.0,64.4,30.02,SSW,197,5.0,9.0,59,0.00,CLR,,0.00,WeatherDisplay:10.37,2013-08-22 10:00:00,
2013-08-22 12:05:00,80.3,65.1,30.02,SSW,198,3.0,7.0,60,0.00,CLR,,0.00,WeatherDisplay:10.37,2013-08-22 10:05:00,
2013-08-22 12:10:00,80.3,65.6,30.02,SSW,204,3.0,9.0,61,0.00,CLR,,0.00,WeatherDisplay:10.37,2013-08-22 10:10:00,
2013-08-22 12:15:00,80.3,66.1,30.02,SSW,203,2.0,8.0,62,0.00,CLR,,0.00,WeatherDisplay:10.37,2013-08-22 10:15:00,
2013-08-22 12:20:00,80.5,65.8,30.02,SSW,196,2.0,9.0,61,0.00,CLR,,0.00,WeatherDisplay:10.37,2013-08-22 10:20:00,
2013-08-22 12:25:00,80.7,66.5,30.02,South,183,3.0,9.0,62,0.00,CLR,,0.00,WeatherDisplay:10.37,2013-08-22 10:25:00,
2013-08-22 12:30:00,80.8,66.6,30.02,South,180,5.0,10.0,62,0.00,CLR,,0.00,WeatherDisplay:10.37,2013-08-22 10:30:00,
2013-08-22 12:35:00,80.6,67.3,30.02,SSW,205,4.0,4.0,64,0.00,,,0.00,Wunderground v.1.15,2013-08-22 10:35:00,
2013-08-22 12:41:00,80.6,67.3,30.02,South,169,4.0,4.0,64,0.00,,,0.00,Wunderground v.1.15,2013-08-22 10:41:00,
2013-08-22 14:30:00,81.8,68.0,30.00,South,188,6.0,10.0,63,0.00,CLR,,0.00,WeatherDisplay:10.37,2013-08-22 12:30:00,
2013-08-22 14:35:00,82.0,68.2,30.00,SSW,196,5.0,9.0,63,0.00,CLR,,0.00,WeatherDisplay:10.37,2013-08-22 12:35:00,
2013-08-22 14:40:00,82.0,68.6,30.00,South,188,3.0,9.0,64,0.00,CLR,,0.00,WeatherDisplay:10.37,2013-08-22 12:40:00,
2013-08-22 14:45:00,82.1,68.3,30.00,South,184,3.0,13.0,63,0.00,CLR,,0.00,WeatherDisplay:10.37,2013-08-22 12:45:00,
2013-08-22 14:50:00,82.2,68.3,30.00,South,186,3.0,9.0,63,0.00,CLR,,0.00,WeatherDisplay:10.37,2013-08-22 12:50:00,
2013-08-22 14:55:00,82.3,68.4,30.00,South,185,3.0,13.0,63,0.00,CLR,,0.00,WeatherDisplay:10.37,2013-08-22 12:55:00,
2013-08-22 15:00:00,82.2,68.3,30.00,South,181,2.0,9.0,63,0.00,CLR,,0.00,WeatherDisplay:10.37,2013-08-22 13:00:00,
2013-08-22 15:05:00,82.4,68.1,30.00,South,187,2.0,12.0,62,0.00,CLR,,0.00,WeatherDisplay:10.37,2013-08-22 13:05:00,
2013-08-22 15:10:00,82.4,68.1,30.00,South,191,5.0,12.0,62,0.00,CLR,,0.00,WeatherDisplay:10.37,2013-08-22 13:10:00,
2013-08-22 15:15:00,82.3,68.0,30.00,South,191,5.0,10.0,62,0.00,CLR,,0.00,WeatherDisplay:10.37,2013-08-22 13:15:00,
2013-08-22 15:20:00,82.3,67.9,29.99,SSW,194,3.0,10.0,62,0.00,CLR,,0.00,WeatherDisplay:10.37,2013-08-22 13:20:00,
2013-08-22 15:25:00,82.3,68.0,29.99,South,187,2.0,9.0,62,0.00,CLR,,0.00,WeatherDisplay:10.37,2013-08-22 13:25:00,
2013-08-22 15:30:00,82.4,68.1,29.99,South,185,3.0,10.0,62,0.00,CLR,,0.00,WeatherDisplay:10.37,2013-08-22 13:30:00,
2013-08-22 15:35:00,82.3,67.5,29.99,SSW,195,6.0,10.0,61,0.00,CLR,,0.00,WeatherDisplay:10.37,2013-08-22 13:35:00,
2013-08-22 15:40:00,82.0,67.2,29.99,SSW,199,6.0,12.0,61,0.00,CLR,,0.00,WeatherDisplay:10.37,2013-08-22 13:40:00,
2013-08-22 15:45:00,82.4,67.6,29.99,SSW,193,3.0,12.0,61,0.00,CLR,,0.00,WeatherDisplay:10.37,2013-08-22 13:45:00,
2013-08-22 15:50:00,82.7,67.9,29.99,South,184,3.0,9.0,61,0.00,CLR,,0.00,WeatherDisplay:10.37,2013-08-22 13:50:00,
2013-08-22 15:51:00,82.8,68.0,29.99,SW,218,3.0,3.0,61,0.00,,,0.00,Wunderground v.1.15,2013-08-22 13:51:00,
2013-08-22 15:56:00,82.8,67.5,29.99,SSW,198,4.0,5.0,60,0.00,,,0.00,Wunderground v.1.15,2013-08-22 13:56:00,
2013-08-22 16:05:00,82.7,67.9,29.99,South,187,6.0,10.0,61,0.00,CLR,,0.00,WeatherDisplay:10.37,2013-08-22 14:05:00,
2013-08-22 16:10:00,82.6,67.8,29.98,SSW,195,5.0,10.0,61,0.00,CLR,,0.00,WeatherDisplay:10.37,2013-08-22 14:10:00,
2013-08-22 16:15:00,82.7,67.9,29.99,SSW,194,5.0,10.0,61,0.00,CLR,,0.00,WeatherDisplay:10.37,2013-08-22 14:15:00,
2013-08-22 16:20:00,82.4,67.6,29.99,South,188,2.0,9.0,61,0.00,CLR,,0.00,WeatherDisplay:10.37,2013-08-22 14:20:00,
2013-08-22 16:25:00,82.7,68.4,29.98,South,186,3.0,9.0,62,0.00,CLR,,0.00,WeatherDisplay:10.37,2013-08-22 14:25:00,
2013-08-22 16:30:00,82.6,68.3,29.98,SSW,195,3.0,10.0,62,0.00,CLR,,0.00,WeatherDisplay:10.37,2013-08-22 14:30:00,
2013-08-22 16:35:00,82.5,67.7,29.98,SSW,202,5.0,10.0,61,0.00,CLR,,0.00,WeatherDisplay:10.37,2013-08-22 14:35:00,
2013-08-22 16:45:00,82.7,67.4,29.98,South,178,2.0,9.0,60,0.00,CLR,,0.00,WeatherDisplay:10.37,2013-08-22 14:45:00,
2013-08-22 16:50:00,82.9,67.6,29.98,South,184,3.0,10.0,60,0.00,CLR,,0.00,WeatherDisplay:10.37,2013-08-22 14:50:00,
2013-08-22 16:55:00,82.8,67.5,29.98,South,183,2.0,10.0,60,0.00,CLR,,0.00,WeatherDisplay:10.37,2013-08-22 14:55:00,
2013-08-22 17:00:00,82.6,67.3,29.98,South,186,2.0,12.0,60,0.00,CLR,,0.00,WeatherDisplay:10.37,2013-08-22 15:00:00,
2013-08-22 17:05:00,82.6,67.8,29.97,South,177,4.0,6.0,61,0.00,,,0.00,Wunderground v.1.15,2013-08-22 15:05:00,
2013-08-22 17:11:00,82.3,67.5,29.97,SW,225,5.0,6.0,61,0.00,,,0.00,Wunderground v.1.15,2013-08-22 15:11:00,
2013-08-22 17:16:00,82.4,68.1,29.97,South,184,4.0,4.0,62,0.00,,,0.00,Wunderground v.1.15,2013-08-22 15:16:00,
2013-08-22 17:25:00,82.5,68.2,29.97,SSW,193,5.0,9.0,62,0.00,CLR,,0.00,WeatherDisplay:10.37,2013-08-22 15:25:00,
2013-08-22 17:30:00,82.4,68.1,29.97,SSW,198,2.0,8.0,62,0.00,CLR,,0.00,WeatherDisplay:10.37,2013-08-22 15:30:00,
2013-08-22 17:35:00,82.8,67.5,29.97,SSW,197,5.0,13.0,60,0.00,CLR,,0.00,WeatherDisplay:10.37,2013-08-22 15:35:00,
2013-08-22 17:40:00,82.4,67.1,29.97,South,183,3.0,12.0,60,0.00,CLR,,0.00,WeatherDisplay:10.37,2013-08-22 15:40:00,
2013-08-22 17:45:00,82.3,67.5,29.97,SSW,195,3.0,9.0,61,0.00,CLR,,0.00,WeatherDisplay:10.37,2013-08-22 15:45:00,
2013-08-22 17:50:00,82.2,67.4,29.96,South,190,3.0,9.0,61,0.00,CLR,,0.00,WeatherDisplay:10.37,2013-08-22 15:50:00,
2013-08-22 17:55:00,82.4,67.6,29.96,South,183,2.0,7.0,61,0.00,CLR,,0.00,WeatherDisplay:10.37,2013-08-22 15:55:00,
2013-08-22 18:00:00,83.0,68.6,29.96,SSW,199,3.0,7.0,62,0.00,CLR,,0.00,WeatherDisplay:10.37,2013-08-22 16:00:00,
2013-08-22 18:05:00,82.7,68.4,29.96,SSW,204,3.0,8.0,62,0.00,CLR,,0.00,WeatherDisplay:10.37,2013-08-22 16:05:00,
2013-08-22 18:10:00,82.9,68.5,29.96,SSW,198,1.0,7.0,62,0.00,CLR,,0.00,WeatherDisplay:10.37,2013-08-22 16:10:00,
2013-08-22 18:15:00,82.9,68.0,29.97,South,186,2.0,8.0,61,0.00,CLR,,0.00,WeatherDisplay:10.37,2013-08-22 16:15:00,
2013-08-22 18:20:00,82.7,67.9,29.97,South,178,3.0,8.0,61,0.00,CLR,,0.00,WeatherDisplay:10.37,2013-08-22 16:20:00,
2013-08-22 18:25:00,82.4,68.1,29.97,South,178,6.0,12.0,62,0.00,CLR,,0.00,WeatherDisplay:10.37,2013-08-22 16:25:00,
2013-08-22 18:30:00,82.3,68.0,29.97,South,183,1.0,8.0,62,0.00,CLR,,0.00,WeatherDisplay:10.37,2013-08-22 16:30:00,
2013-08-22 18:35:00,82.0,67.7,29.97,SSW,198,3.0,8.0,62,0.00,CLR,,0.00,WeatherDisplay:10.37,2013-08-22 16:35:00,
2013-08-22 18:40:00,81.8,67.5,29.97,SSW,201,5.0,8.0,62,0.00,CLR,,0.00,WeatherDisplay:10.37,2013-08-22 16:40:00,
2013-08-22 18:45:00,81.8,68.0,29.97,South,191,2.0,7.0,63,0.00,CLR,,0.00,WeatherDisplay:10.37,2013-08-22 16:45:00,
2013-08-22 18:50:00,81.6,67.8,29.97,South,190,2.0,7.0,63,0.00,CLR,,0.00,WeatherDisplay:10.37,2013-08-22 16:50:00,
2013-08-22 18:55:00,81.6,67.3,29.97,SSW,193,3.0,8.0,62,0.00,CLR,,0.00,WeatherDisplay:10.37,2013-08-22 16:55:00,
2013-08-22 19:00:00,81.6,67.3,29.97,SSW,197,3.0,9.0,62,0.00,CLR,,0.00,WeatherDisplay:10.37,2013-08-22 17:00:00,
2013-08-22 19:05:00,81.4,67.6,29.96,SSW,197,1.0,9.0,63,0.00,CLR,,0.00,WeatherDisplay:10.37,2013-08-22 17:05:00,
2013-08-22 19:10:00,81.5,68.1,29.96,SSW,200,1.0,8.0,64,0.00,CLR,,0.00,WeatherDisplay:10.37,2013-08-22 17:10:00,
2013-08-22 19:15:00,81.5,67.7,29.96,SSW,206,1.0,7.0,63,0.00,CLR,,0.00,WeatherDisplay:10.37,2013-08-22 17:15:00,
2013-08-22 19:20:00,81.5,68.1,29.96,SSW,194,1.0,5.0,64,0.00,CLR,,0.00,WeatherDisplay:10.37,2013-08-22 17:20:00,
2013-08-22 19:25:00,81.5,68.1,29.96,SSW,192,1.0,6.0,64,0.00,CLR,,0.00,WeatherDisplay:10.37,2013-08-22 17:25:00,
2013-08-22 19:30:00,81.2,67.9,29.96,South,176,2.0,7.0,64,0.00,CLR,,0.00,WeatherDisplay:10.37,2013-08-22 17:30:00,
2013-08-22 19:35:00,81.2,67.9,29.96,South,177,2.0,6.0,64,0.00,CLR,,0.00,WeatherDisplay:10.37,2013-08-22 17:35:00,
2013-08-22 19:40:00,81.0,67.7,29.96,SSW,194,3.0,7.0,64,0.00,CLR,,0.00,WeatherDisplay:10.37,2013-08-22 17:40:00,
2013-08-22 19:45:00,80.8,67.5,29.96,SSW,195,2.0,6.0,64,0.00,CLR,,0.00,WeatherDisplay:10.37,2013-08-22 17:45:00,
2013-08-22 19:50:00,80.8,67.9,29.96,SSW,195,1.0,5.0,65,0.00,CLR,,0.00,WeatherDisplay:10.37,2013-08-22 17:50:00,
2013-08-22 19:55:00,80.9,67.6,29.96,SSE,148,1.0,4.0,64,0.00,,,0.00,Wunderground v.1.15,2013-08-22 17:55:00,
2013-08-22 20:05:00,80.6,67.3,29.96,South,186,0.0,6.0,64,0.00,CLR,,0.00,WeatherDisplay:10.37,2013-08-22 18:05:00,
2013-08-22 20:10:00,80.3,67.0,29.96,South,186,1.0,6.0,64,0.00,CLR,,0.00,WeatherDisplay:10.37,2013-08-22 18:10:00,
2013-08-22 20:15:00,80.0,67.2,29.96,SSW,203,3.0,7.0,65,0.00,CLR,,0.00,WeatherDisplay:10.37,2013-08-22 18:15:00,
2013-08-22 20:20:00,79.6,66.8,29.96,SW,217,0.0,5.0,65,0.00,CLR,,0.00,WeatherDisplay:10.37,2013-08-22 18:20:00,
2013-08-22 20:25:00,79.4,67.5,29.97,SW,216,3.0,7.0,67,0.00,CLR,,0.00,WeatherDisplay:10.37,2013-08-22 18:25:00,
2013-08-22 20:30:00,79.2,67.3,29.97,SW,215,2.0,6.0,67,0.00,CLR,,0.00,WeatherDisplay:10.37,2013-08-22 18:30:00,
2013-08-22 20:35:00,79.1,67.2,29.97,SW,215,0.0,7.0,67,0.00,CLR,,0.00,WeatherDisplay:10.37,2013-08-22 18:35:00,
2013-08-22 20:40:00,79.1,67.2,29.97,SSW,212,1.0,4.0,67,0.00,CLR,,0.00,WeatherDisplay:10.37,2013-08-22 18:40:00,
2013-08-22 20:45:00,79.0,67.1,29.97,SSW,210,0.0,6.0,67,0.00,CLR,,0.00,WeatherDisplay:10.37,2013-08-22 18:45:00,
2013-08-22 20:50:00,79.0,67.5,29.97,SSW,212,1.0,6.0,68,0.00,CLR,,0.00,WeatherDisplay:10.37,2013-08-22 18:50:00,
2013-08-22 20:55:00,79.0,67.5,29.97,SW,217,2.0,6.0,68,0.00,CLR,,0.00,WeatherDisplay:10.37,2013-08-22 18:55:00,
2013-08-22 21:00:00,79.0,67.9,29.97,SW,214,2.0,6.0,69,0.00,,,0.00,WeatherDisplay:10.37,2013-08-22 19:00:00,
2013-08-22 21:05:00,78.9,67.4,29.97,SSW,204,0.0,5.0,68,0.00,,,0.00,WeatherDisplay:10.37,2013-08-22 19:05:00,
2013-08-22 21:10:00,79.0,68.0,29.98,SSW,202,0.0,3.0,69,0.00,,,0.00,WeatherDisplay:10.37,2013-08-22 19:10:00,
2013-08-22 21:15:00,78.9,67.9,29.98,SSW,207,1.0,6.0,69,0.00,,,0.00,WeatherDisplay:10.37,2013-08-22 19:15:00,
2013-08-22 21:20:00,78.9,67.4,29.98,SSW,208,1.0,6.0,68,0.00,,,0.00,WeatherDisplay:10.37,2013-08-22 19:20:00,
2013-08-22 21:25:00,78.8,67.3,29.98,SSW,209,0.0,5.0,68,0.00,,,0.00,WeatherDisplay:10.37,2013-08-22 19:25:00,
2013-08-22 21:30:00,78.9,67.4,29.98,SSW,209,1.0,5.0,68,0.00,,,0.00,WeatherDisplay:10.37,2013-08-22 19:30:00,
2013-08-22 21:35:00,78.9,67.9,29.98,SSW,209,1.0,3.0,69,0.00,,,0.00,WeatherDisplay:10.37,2013-08-22 19:35:00,
2013-08-22 21:40:00,78.8,67.8,29.98,SSW,209,1.0,6.0,69,0.00,,,0.00,WeatherDisplay:10.37,2013-08-22 19:40:00,
2013-08-22 21:45:00,78.8,67.8,29.98,SSW,209,0.0,6.0,69,0.00,,,0.00,WeatherDisplay:10.37,2013-08-22 19:45:00,
2013-08-22 21:50:00,78.8,67.8,29.98,SSW,209,2.0,6.0,69,0.00,,,0.00,WeatherDisplay:10.37,2013-08-22 19:50:00,
2013-08-22 21:55:00,78.9,67.8,29.98,SSW,209,0.0,5.0,69,0.00,,,0.00,WeatherDisplay:10.37,2013-08-22 19:55:00,
2013-08-22 22:00:00,78.9,67.9,29.98,SSW,207,0.0,5.0,69,0.00,,,0.00,WeatherDisplay:10.37,2013-08-22 20:00:00,
2013-08-22 22:05:00,78.9,67.9,29.98,SSW,199,1.0,3.0,69,0.00,,,0.00,WeatherDisplay:10.37,2013-08-22 20:05:00,
2013-08-22 22:10:00,78.9,67.9,29.99,SSW,197,1.0,3.0,69,0.00,,,0.00,WeatherDisplay:10.37,2013-08-22 20:10:00,
2013-08-22 22:15:00,78.8,67.8,29.99,SSW,197,0.0,2.0,69,0.00,,,0.00,WeatherDisplay:10.37,2013-08-22 20:15:00,
2013-08-22 22:20:00,78.8,68.2,29.99,SSW,197,0.0,4.0,70,0.00,,,0.00,WeatherDisplay:10.37,2013-08-22 20:20:00,
2013-08-22 22:25:00,78.7,67.7,30.00,SSW,196,2.0,4.0,69,0.00,,,0.00,WeatherDisplay:10.37,2013-08-22 20:25:00,
2013-08-22 22:30:00,78.5,67.5,30.00,SSW,196,1.0,4.0,69,0.00,,,0.00,WeatherDisplay:10.37,2013-08-22 20:30:00,
2013-08-22 22:35:00,78.5,67.9,30.00,SSW,196,1.0,3.0,70,0.00,,,0.00,WeatherDisplay:10.37,2013-08-22 20:35:00,
2013-08-22 22:40:00,78.5,67.9,30.00,SSW,196,0.0,4.0,70,0.00,,,0.00,WeatherDisplay:10.37,2013-08-22 20:40:00,
2013-08-22 22:45:00,78.5,67.9,30.00,SSW,196,0.0,4.0,70,0.00,,,0.00,WeatherDisplay:10.37,2013-08-22 20:45:00,
2013-08-22 22:50:00,78.5,67.9,30.00,SSW,196,0.0,2.0,70,0.00,,,0.00,WeatherDisplay:10.37,2013-08-22 20:50:00,
2013-08-22 22:55:00,78.5,67.9,29.99,SSW,196,0.0,0.0,70,0.00,,,0.00,WeatherDisplay:10.37,2013-08-22 20:55:00,
2013-08-22 23:00:00,78.5,67.9,29.98,SSW,196,0.0,0.0,70,0.00,,,0.00,WeatherDisplay:10.37,2013-08-22 21:00:00,
2013-08-22 23:05:00,78.5,67.9,29.98,SSW,196,0.0,0.0,70,0.00,,,0.00,WeatherDisplay:10.37,2013-08-22 21:05:00,
2013-08-22 23:10:00,78.4,67.4,29.98,SSW,196,0.0,0.0,69,0.00,,,0.00,WeatherDisplay:10.37,2013-08-22 21:10:00,
2013-08-22 23:15:00,78.4,67.4,29.97,South,181,0.0,0.0,69,0.00,,,0.00,WeatherDisplay:10.37,2013-08-22 21:15:00,
2013-08-22 23:20:00,78.4,67.8,29.97,SE,145,0.0,0.0,70,0.00,,,0.00,WeatherDisplay:10.37,2013-08-22 21:20:00,
2013-08-22 23:25:00,78.4,67.8,29.96,SE,125,0.0,0.0,70,0.00,,,0.00,WeatherDisplay:10.37,2013-08-22 21:25:00,
2013-08-22 23:30:00,78.3,67.7,29.96,ESE,120,2.0,6.0,70,0.00,,,0.00,WeatherDisplay:10.37,2013-08-22 21:30:00,
2013-08-22 23:35:00,78.2,67.6,29.97,ESE,111,2.0,6.0,70,0.00,,,0.00,WeatherDisplay:10.37,2013-08-22 21:35:00,
2013-08-22 23:40:00,78.0,67.4,29.96,ESE,109,1.0,5.0,70,0.00,,,0.00,WeatherDisplay:10.37,2013-08-22 21:40:00,
2013-08-22 23:45:00,77.8,67.2,29.97,ESE,109,0.0,5.0,70,0.00,,,0.00,WeatherDisplay:10.37,2013-08-22 21:45:00,
2013-08-22 23:50:00,77.7,67.1,29.97,ESE,109,0.0,0.0,70,0.00,,,0.00,WeatherDisplay:10.37,2013-08-22 21:50:00,
2013-08-22 23:55:00,77.5,66.9,29.97,ESE,109,0.0,0.0,70,0.00,,,0.00,WeatherDisplay:10.37,2013-08-22 21:55:00,